Flight Track Log - Related Links

Times and Time Zones

All times are in EDT time to prevent confusion due to time zone crossing. See the THY2468 flight status page for this flight to view local times or setup timezone preferences in your user account.

Time Position Orientation Groundspeed Altitude Reporting Facility
EDT Latitude Longitude Course Direction KTS MPH feet Rate Location/Type
Thu 11:05:00 AM 40.5871 29.5127 126° Southeast  Level Estimated
Thu 11:06:00 AM 40.5218 29.6272 127° Southeast  Level Estimated
Thu 11:07:00 AM 40.4563 29.7414 127° Southeast  Level Estimated
Thu 11:08:00 AM 40.3907 29.8554 127° Southeast  Level Estimated
Thu 11:09:00 AM 40.3250 29.9693 127° Southeast  Level Estimated
Thu 11:10:00 AM 40.2592 30.0828 127° Southeast  Level Estimated
Thu 11:11:00 AM 40.1932 30.1962 127° Southeast  Level Estimated
Thu 11:12:00 AM 40.1272 30.3094 127° Southeast  Level Estimated
Thu 11:13:00 AM 40.0611 30.4223 127° Southeast  Level Estimated
Thu 11:14:00 AM 39.9948 30.5350 127° Southeast  Level Estimated
Thu 11:15:00 AM 39.9285 30.6475 128° Southeast  Level Estimated
Thu 11:16:00 AM 39.8620 30.7598 128° Southeast  Level Estimated
Thu 11:17:00 AM 39.7954 30.8718 128° Southeast  Level Estimated
Thu 11:18:00 AM 39.7287 30.9837 128° Southeast  Level Estimated
Thu 11:19:00 AM 39.6619 31.0953 128° Southeast  Level Estimated
Thu 11:20:00 AM 39.5951 31.2067 128° Southeast  Level Estimated
Thu 11:21:00 AM 39.5280 31.3179 128° Southeast  Level Estimated
Thu 11:22:00 AM 39.4609 31.4288 128° Southeast  Level Estimated
Thu 11:23:00 AM 39.3937 31.5396 128° Southeast  Level Estimated
Thu 11:24:00 AM 39.3264 31.6502 128° Southeast  Level Estimated
Thu 11:25:00 AM 39.2590 31.7605 128° Southeast  Level Estimated
Thu 11:26:00 AM 39.1914 31.8706 128° Southeast  Level Estimated
Thu 11:27:00 AM 39.1238 31.9805 128° Southeast  Level Estimated
Thu 11:28:00 AM 39.0561 32.0902 128° Southeast  Level Estimated
Thu 11:29:00 AM 38.9883 32.1997 129° Southeast  Level Estimated
Thu 11:30:00 AM 38.9203 32.3090 129° Southeast  Level Estimated
Thu 11:31:00 AM 38.8523 32.4180 129° Southeast  Level Estimated
Thu 11:32:00 AM 38.7841 32.5269 129° Southeast  Level Estimated
Thu 11:33:00 AM 38.7159 32.6356 129° Southeast  Level Estimated
Thu 11:34:00 AM 38.6475 32.7440 129° Southeast  Level Estimated
Thu 11:35:00 AM 38.5791 32.8522 129° Southeast  Level Estimated
Thu 11:36:00 AM 38.5106 32.9603 129° Southeast  Level Estimated
Thu 11:37:00 AM 38.4419 33.0681 129° Southeast  Level Estimated
Thu 11:38:00 AM 38.3732 33.1757 129° Southeast  Level Estimated
Thu 11:39:00 AM 38.3044 33.2831 129° Southeast  Level Estimated
Thu 11:40:00 AM 38.2354 33.3904 129° Southeast  Level Estimated
Thu 11:41:00 AM 38.1664 33.4974 129° Southeast  Level Estimated
Thu 11:42:00 AM 38.0973 33.6042 129° Southeast  Level Estimated
Thu 11:43:00 AM 38.0280 33.7108 129° Southeast  Level Estimated
Thu 11:44:00 AM 37.9587 33.8172 130° Southeast  Level Estimated
Thu 11:45:00 AM 37.8893 33.9234 130° Southeast  Level Estimated
Thu 11:46:00 AM 37.8198 34.0294 130° Southeast  Level Estimated
Thu 11:47:00 AM 37.7502 34.1352 130° Southeast  Level Estimated
Thu 11:48:00 AM 37.6805 34.2408 130° Southeast  Level Estimated
Thu 11:49:00 AM 37.6107 34.3462 130° Southeast  Level Estimated
Thu 11:50:00 AM 37.5408 34.4514 130° Southeast  Level Estimated
Thu 11:51:00 AM 37.4708 34.5564 130° Southeast  Level Estimated
Thu 11:52:00 AM 37.4007 34.6612 130° Southeast  Level Estimated
Thu 11:53:00 AM 37.3305 34.7659 130° Southeast  Level Estimated
Thu 11:54:00 AM 37.2603 34.8703 130° Southeast  Level Estimated
Thu 11:55:00 AM 37.1899 34.9745 130° Southeast  Level Estimated
Thu 11:56:00 AM 37.1195 35.0785 130° Southeast  Level Estimated
Thu 11:57:00 AM 37.0490 35.1824 130° Southeast  Level Estimated
Thu 11:58:00 AM 36.9822 35.2804 130° Southeast  Level Estimated
Thu 11:59:00 AM 36.9822 35.2804 202° Southwest  Level Estimated
Thu 12:00:00 PM 36.9822 35.2804 202° Southwest  Level Estimated
Thu 12:01:00 PM 36.9822 35.2804 202° Southwest  Level Estimated
Thu 12:02:00 PM 36.9822 35.2804 202° Southwest  Level Estimated
Thu 12:03:00 PM 36.9822 35.2804 202° Southwest  Level Estimated
Thu 12:04:00 PM 36.9822 35.2804 202° Southwest  Level Estimated
Thu 12:05:00 PM 36.9822 35.2804 202° Southwest  Level Estimated
Thu 12:06:00 PM 36.9822 35.2804 202° Southwest  Level Estimated
Thu 12:07:00 PM 36.9822 35.2804 202° Southwest  Level Estimated
Thu 12:08:00 PM 36.9822 35.2804 202° Southwest  Level Estimated
Thu 12:09:00 PM 36.9822 35.2804 202° Southwest  Level Estimated
Thu 12:10:00 PM 36.9822 35.2804 202° Southwest  Level Estimated
Thu 12:11:00 PM 36.9822 35.2804 202° Southwest  Level Estimated
Thu 12:12:00 PM 36.9822 35.2804 202° Southwest  Level Estimated
Thu 12:13:00 PM 36.9822 35.2804 202° Southwest  Level Estimated
Thu 12:14:00 PM 36.9822 35.2804 202° Southwest  Level Estimated

Login

Don't have an account? Register now (free) for customized features, flight alerts, and more!